This is the latest recevied weather packets stored in our database for station/object AC4AG. If no packets are shown the sender has not sent any weather packets the latest 10 day(s).
| Time | Temp. | Humidity | Pressure | Rain* | Wind** | Luminosity | Snow |
|---|---|---|---|---|---|---|---|
| 1777664915 | 15.56° C | 66% | 1013.5 hPa | 0 mm | - | 261 W/m² | - |
| 1777664611 | 15.56° C | 65% | 1013.5 hPa | 0 mm | - | 425 W/m² | - |
| 1777664307 | 15.56° C | 67% | 1013.3 hPa | 0 mm | - | 339 W/m² | - |
| 1777664006 | 16.11° C | 62% | 1013.2 hPa | 0 mm | - | 303 W/m² | - |
| 1777663703 | 15.56° C | 64% | 1013.5 hPa | 0 mm | - | 955 W/m² | - |
| 1777663400 | 16.11° C | 63% | 1013.3 hPa | 0 mm | - | 397 W/m² | - |
| 1777663097 | 15.56° C | 64% | 1013.6 hPa | 0 mm | - | 334 W/m² | - |
| 1777662795 | 16.11° C | 62% | 1013.4 hPa | 0 mm | - | 268 W/m² | - |
| 1777662491 | 16.11° C | 60% | 1013.4 hPa | 0 mm | - | 318 W/m² | - |
| 1777662187 | 16.11° C | 60% | 1013.8 hPa | 0 mm | - | 1083 W/m² | - |
| 1777661882 | 16.11° C | 56% | 1013.5 hPa | 0 mm | - | 466 W/m² | - |
| 1777661579 | 17.22° C | 54% | 1013.4 hPa | 0 mm | - | 305 W/m² | - |
| 1777661275 | 16.67° C | 56% | 1013.3 hPa | 0 mm | - | 401 W/m² | - |
| 1777660970 | 16.67° C | 55% | 1013.2 hPa | 0 mm | - | 1028 W/m² | - |
| 1777660666 | 15.56° C | 56% | 1013.6 hPa | 0 mm | - | 359 W/m² | - |
| 1777660363 | 16.11° C | 54% | 1013.5 hPa | 0 mm | - | 248 W/m² | - |
| 1777660060 | 16.11° C | 55% | 1013.4 hPa | 0 mm | - | 431 W/m² | - |
| 1777659757 | 16.11° C | 54% | 1013.6 hPa | 0 mm | - | 294 W/m² | - |
| 1777659453 | 16.67° C | 52% | 1013.3 hPa | 0 mm | - | 260 W/m² | - |
| 1777659151 | 16.11° C | 54% | 1013.6 hPa | 0 mm | - | 980 W/m² | - |
| 1777658849 | 16.11° C | 53% | 1013.5 hPa | 0 mm | - | 1039 W/m² | - |
| 1777658544 | 16.67° C | 54% | 1013.4 hPa | 0 mm | - | 273 W/m² | - |
| 1777658241 | 16.67° C | 55% | 1013.6 hPa | 0 mm | - | 952 W/m² | - |
| 1777657938 | 16.11° C | 57% | 1013.9 hPa | 0 mm | - | 1040 W/m² | - |
| 1777657635 | 16.11° C | 55% | 1013.9 hPa | 0 mm | - | 431 W/m² | - |
* Rain latest hour (hover to see other rain measurements)
** Current wind speed in m/s (hover to see current wind gust speed)